Time;durP1;ratioP1;P1;durP2;ratioP2;P2;SDS_P1;SDS_P2;PMS_P1;PMS_P2;Temp;Humidity;BMP_temperature;BMP_pressure;BME280_temperature;BME280_humidity;BME280_pressure;Samples;Min_cycle;Max_cycle;Signal;HPM_P1;HPM_P2
2021/01/06 00:00:20;;;;;;;4.53;3.73;;;2.10;99.90;;;2.66;100.00;97739.91;4999133;28;20940;-78
2021/01/06 00:02:47;;;;;;;4.73;3.40;;;2.00;99.90;;;2.65;100.00;97748.59;5004755;28;20527;-79
2021/01/06 00:05:21;;;;;;;5.80;3.80;;;2.00;99.90;;;2.61;100.00;97742.91;5008195;28;20962;-79
2021/01/06 00:07:49;;;;;;;8.20;4.03;;;2.00;99.90;;;2.63;100.00;97747.94;4999156;28;20467;-79
2021/01/06 00:10:24;;;;;;;5.47;4.03;;;2.10;99.90;;;2.60;100.00;97743.09;4999107;28;20894;-79
2021/01/06 00:12:52;;;;;;;7.00;4.20;;;2.00;99.90;;;2.58;100.00;97744.97;4998641;28;21266;-79
2021/01/06 00:15:26;;;;;;;4.37;3.63;;;1.90;99.90;;;2.64;100.00;97747.00;4998608;28;20494;-79
2021/01/06 00:17:53;;;;;;;6.37;3.50;;;2.10;99.90;;;2.67;100.00;97738.97;4999035;28;20486;-79
2021/01/06 00:20:24;;;;;;;3.90;3.37;;;2.10;99.90;;;2.62;100.00;97741.16;4998477;28;21002;-79
2021/01/06 00:22:52;;;;;;;4.50;3.23;;;2.10;99.90;;;2.56;100.00;97742.56;4998947;28;20896;-79
2021/01/06 00:25:24;;;;;;;3.47;3.17;;;2.00;99.90;;;2.53;100.00;97741.06;4998620;28;20465;-79
2021/01/06 00:27:52;;;;;;;3.37;3.00;;;1.90;99.90;;;2.57;100.00;97743.38;4999038;28;20455;-79
2021/01/06 00:30:24;;;;;;;3.90;2.90;;;1.90;99.90;;;2.50;100.00;97743.13;4998530;28;20463;-79
2021/01/06 00:32:52;;;;;;;6.00;3.27;;;1.90;99.90;;;2.54;100.00;97745.28;4998721;28;21049;-79
2021/01/06 00:35:21;;;;;;;4.90;3.70;;;1.90;99.90;;;2.56;100.00;97745.16;4998091;28;21025;-79
2021/01/06 00:37:49;;;;;;;4.73;3.20;;;1.90;99.90;;;2.59;100.00;97741.44;4998971;28;20447;-79
2021/01/06 00:40:19;;;;;;;3.50;3.03;;;2.00;99.90;;;2.54;100.00;97749.63;4999126;28;20499;-79
2021/01/06 00:42:47;;;;;;;5.97;3.10;;;1.90;99.90;;;2.54;100.00;97753.00;5002744;28;20459;-79
2021/01/06 00:45:18;;;;;;;6.50;3.20;;;2.00;99.90;;;2.51;100.00;97745.56;5003121;28;20455;-79
2021/01/06 00:47:45;;;;;;;6.33;3.43;;;1.80;99.90;;;2.53;100.00;97737.69;5002672;28;20452;-79
2021/01/06 00:50:14;;;;;;;4.50;3.17;;;1.90;99.90;;;2.57;100.00;97746.75;5001716;28;20473;-79
2021/01/06 00:52:41;;;;;;;3.73;2.97;;;1.90;99.90;;;2.48;100.00;97745.03;5002217;28;20446;-79
2021/01/06 00:55:10;;;;;;;3.03;2.73;;;1.80;99.90;;;2.49;100.00;97747.50;5002292;28;20503;-79
2021/01/06 00:57:37;;;;;;;5.67;3.50;;;1.90;99.90;;;2.48;100.00;97748.44;5002238;28;20454;-79
2021/01/06 01:00:13;;;;;;;4.70;3.40;;;1.90;99.90;;;2.49;100.00;97747.50;5001951;28;20498;-79
2021/01/06 01:02:40;;;;;;;3.97;2.80;;;1.90;99.90;;;2.45;100.00;97745.34;5002980;28;20450;-79
2021/01/06 01:05:10;;;;;;;4.10;3.03;;;1.80;99.90;;;2.45;100.00;97746.16;5001981;28;20502;-79
2021/01/06 01:07:38;;;;;;;4.60;3.00;;;1.90;99.90;;;2.49;100.00;97742.31;5002056;28;20443;-79
2021/01/06 01:10:07;;;;;;;3.43;3.00;;;1.90;99.90;;;2.52;100.00;97738.63;5001165;28;20458;-79
2021/01/06 01:12:34;;;;;;;2.97;2.63;;;2.00;99.90;;;2.48;100.00;97739.88;5002723;28;20452;-79
2021/01/06 01:15:04;;;;;;;4.30;3.00;;;1.90;99.90;;;2.48;100.00;97748.44;5001279;28;20871;-79
2021/01/06 01:17:32;;;;;;;6.07;3.10;;;1.80;99.90;;;2.52;100.00;97747.19;5002830;28;20537;-79
2021/01/06 01:20:00;;;;;;;3.90;3.27;;;1.80;99.90;;;2.54;100.00;97750.44;5001392;28;20459;-79
2021/01/06 01:22:27;;;;;;;6.80;3.23;;;1.90;99.90;;;2.58;100.00;97744.97;5002013;28;20499;-79
2021/01/06 01:24:55;;;;;;;5.60;3.50;;;2.00;99.90;;;2.51;100.00;97745.56;5001892;28;20455;-79
2021/01/06 01:27:22;;;;;;;4.00;2.90;;;2.00;99.90;;;2.54;100.00;97747.84;5001321;28;20460;-79
2021/01/06 01:29:50;;;;;;;3.43;3.00;;;2.00;99.90;;;2.58;100.00;97744.97;5002165;28;20451;-79
2021/01/06 01:32:17;;;;;;;4.20;3.47;;;2.00;99.90;;;2.54;100.00;97750.44;5001807;28;20463;-79
2021/01/06 01:34:46;;;;;;;4.00;3.10;;;2.00;99.90;;;2.53;100.00;97753.19;5001126;28;21010;-79
2021/01/06 01:37:13;;;;;;;3.97;2.40;;;2.00;99.90;;;2.52;100.00;97751.53;5001417;28;20534;-79
2021/01/06 01:39:41;;;;;;;9.90;3.80;;;2.00;99.90;;;2.49;100.00;97744.91;5000868;28;20443;-78
2021/01/06 01:42:08;;;;;;;4.60;3.30;;;1.90;99.90;;;2.46;100.00;97750.31;5001554;28;20513;-79
2021/01/06 01:45:02;;;;;;;4.50;3.00;;;1.80;99.90;;;2.53;100.00;97756.53;5001454;28;20467;-78
2021/01/06 01:47:46;;;;;;;2.77;2.50;;;1.90;99.90;;;2.53;100.00;97753.19;5001676;28;20451;-79
2021/01/06 01:50:18;;;;;;;3.90;3.50;;;1.90;99.90;;;2.54;100.00;97755.59;5000585;28;20464;-79
2021/01/06 01:52:52;;;;;;;3.80;2.90;;;1.90;99.90;;;2.53;100.00;97758.34;5001044;28;20459;-79
2021/01/06 01:55:22;;;;;;;2.43;2.23;;;2.00;99.90;;;2.54;100.00;97767.69;5000755;28;20542;-79
2021/01/06 01:57:57;;;;;;;4.00;3.00;;;1.90;99.90;;;2.51;100.00;97766.22;5001734;28;20459;-79
2021/01/06 02:00:29;;;;;;;4.27;2.70;;;1.80;99.90;;;2.52;100.00;97754.94;5000686;28;20463;-79
2021/01/06 02:03:08;;;;;;;3.70;3.07;;;1.90;99.90;;;2.56;100.00;97758.03;5001417;28;20470;-79
2021/01/06 02:05:48;;;;;;;3.30;2.53;;;1.90;99.90;;;2.57;100.00;97762.22;5000846;28;20459;-79
2021/01/06 02:08:22;;;;;;;3.70;2.77;;;1.90;99.90;;;2.57;100.00;97764.03;5000959;28;20459;-79
2021/01/06 02:10:56;;;;;;;2.83;2.30;;;2.00;99.90;;;2.56;100.00;97757.22;5000236;28;20445;-79
2021/01/06 02:13:32;;;;;;;4.43;2.20;;;1.90;99.90;;;2.54;100.00;97763.34;5000025;28;20466;-79
2021/01/06 02:16:13;;;;;;;4.07;2.77;;;1.90;99.90;;;2.54;100.00;97762.53;5001592;28;21184;-79
2021/01/06 02:18:41;;;;;;;4.10;3.00;;;1.90;99.90;;;2.54;100.00;97760.75;5000938;28;20476;-79
2021/01/06 02:21:15;;;;;;;3.47;3.13;;;1.90;99.90;;;2.58;100.00;97760.47;5000629;28;20979;-79
2021/01/06 02:23:48;;;;;;;2.50;2.00;;;2.00;99.90;;;2.56;100.00;97762.38;5000252;28;20971;-79
2021/01/06 02:26:17;;;;;;;3.40;2.50;;;1.90;99.90;;;2.58;100.00;97761.28;5000588;28;20463;-79
2021/01/06 02:28:46;;;;;;;3.10;2.50;;;1.90;99.90;;;2.54;100.00;97760.75;5001130;28;20967;-79
2021/01/06 02:31:14;;;;;;;3.57;2.60;;;1.90;99.90;;;2.51;100.00;97760.22;5000165;28;20466;-79
2021/01/06 02:33:42;;;;;;;4.20;3.00;;;2.00;99.90;;;2.52;100.00;97754.13;4999983;28;20502;-78
2021/01/06 02:36:11;;;;;;;3.03;2.37;;;2.00;99.90;;;2.44;100.00;97754.84;5000296;28;20494;-79
2021/01/06 02:38:39;;;;;;;2.60;2.40;;;1.90;99.90;;;2.47;100.00;97756.31;5000826;28;20451;-79
2021/01/06 02:41:07;;;;;;;4.00;2.50;;;1.90;99.90;;;2.38;100.00;97752.84;4999621;28;20452;-79
2021/01/06 02:43:35;;;;;;;3.23;2.30;;;1.80;99.90;;;2.45;100.00;97756.47;5000415;28;20497;-79
2021/01/06 02:46:03;;;;;;;2.40;2.07;;;1.90;99.90;;;2.44;100.00;97752.25;5000192;28;20955;-79
2021/01/06 02:48:32;;;;;;;3.30;2.77;;;1.80;99.90;;;2.46;100.00;97752.13;4999958;28;20463;-79
2021/01/06 02:51:08;;;;;;;2.60;2.40;;;1.80;99.90;;;2.45;100.00;97746.16;4999886;28;20456;-79
2021/01/06 02:53:48;;;;;;;2.60;2.13;;;1.80;99.90;;;2.41;100.00;97746.56;5000411;28;20874;-79
2021/01/06 02:56:19;;;;;;;2.37;2.10;;;1.80;99.90;;;2.44;100.00;97741.94;5000156;28;20495;-79
2021/01/06 02:58:49;;;;;;;2.97;2.13;;;1.80;99.90;;;2.42;100.00;97746.44;5000150;28;20459;-79
2021/01/06 03:01:22;;;;;;;3.10;2.30;;;1.80;99.90;;;2.40;100.00;97742.34;5000054;28;20459;-79
2021/01/06 03:03:52;;;;;;;2.63;2.43;;;1.80;99.90;;;2.36;100.00;97744.41;5000467;28;20468;-79
2021/01/06 03:06:31;;;;;;;3.00;2.37;;;1.80;99.90;;;2.35;100.00;97745.38;4999515;28;20470;-79
2021/01/06 03:09:00;;;;;;;2.47;2.07;;;1.80;99.90;;;2.27;100.00;97742.69;5000298;28;20459;-79
2021/01/06 03:11:29;;;;;;;2.30;2.07;;;1.70;99.90;;;2.36;100.00;97741.81;5000322;28;20454;-79
2021/01/06 03:13:57;;;;;;;2.77;2.20;;;1.70;99.90;;;2.40;100.00;97747.50;5000102;28;20471;-79
2021/01/06 03:16:25;;;;;;;2.33;1.93;;;1.80;99.90;;;2.24;100.00;97748.16;4999732;28;20849;-79
2021/01/06 03:18:56;;;;;;;4.17;2.57;;;1.50;99.90;;;2.30;100.00;97746.75;5000010;28;20486;-79
2021/01/06 03:21:24;;;;;;;3.43;2.50;;;1.70;99.90;;;2.29;100.00;97747.72;4999436;28;20896;-79
2021/01/06 03:23:55;;;;;;;2.70;1.80;;;1.70;99.90;;;2.30;100.00;97752.72;4999746;28;20462;-79
2021/01/06 03:26:27;;;;;;;2.73;2.27;;;1.80;99.90;;;2.33;100.00;97746.47;4999496;28;20464;-78
2021/01/06 03:28:55;;;;;;;3.00;2.40;;;1.70;99.90;;;2.35;100.00;97745.38;5000572;28;20452;-79
2021/01/06 03:31:37;;;;;;;2.37;1.70;;;1.70;99.90;;;2.31;100.00;97746.63;4999573;28;20447;-79
2021/01/06 03:34:15;;;;;;;2.67;2.20;;;1.70;99.90;;;2.31;100.00;97745.81;4998935;28;20896;-80
2021/01/06 03:36:51;;;;;;;1.80;1.70;;;1.70;99.90;;;2.27;100.00;97742.69;4999572;28;20516;-79
2021/01/06 03:39:26;;;;;;;2.30;2.00;;;1.60;99.90;;;2.26;100.00;97746.22;4999052;28;20849;-78
2021/01/06 03:41:57;;;;;;;2.40;2.20;;;1.70;99.90;;;2.31;100.00;97738.88;4999530;28;20834;-79
2021/01/06 03:44:27;;;;;;;2.73;1.73;;;1.70;99.90;;;2.30;100.00;97734.66;4998767;28;20534;-79
2021/01/06 03:47:05;;;;;;;2.53;2.20;;;1.70;99.90;;;2.36;100.00;97736.66;4999176;28;20844;-78
2021/01/06 03:49:49;;;;;;;3.20;2.23;;;1.80;99.90;;;2.34;100.00;97732.63;4998783;28;20517;-78
2021/01/06 03:52:31;;;;;;;2.40;2.20;;;1.70;99.90;;;2.37;100.00;97733.16;4998481;28;21222;-79
2021/01/06 03:55:06;;;;;;;2.90;2.10;;;1.80;99.90;;;2.39;100.00;97733.00;4998068;28;20533;-79
2021/01/06 03:57:35;;;;;;;3.40;2.00;;;1.80;99.90;;;2.41;100.00;97731.09;4998614;28;20447;-79
2021/01/06 04:00:07;;;;;;;3.20;2.20;;;1.80;99.90;;;2.42;100.00;97736.13;4998259;28;20960;-79
2021/01/06 04:02:43;;;;;;;2.43;1.87;;;1.80;99.90;;;2.39;100.00;97731.25;4998457;28;20446;-79
2021/01/06 04:05:16;;;;;;;2.17;1.93;;;1.80;99.90;;;2.38;100.00;97729.63;4998753;28;21144;-79
2021/01/06 04:07:48;;;;;;;2.53;2.33;;;1.90;99.90;;;2.35;100.00;97719.59;4998718;28;20483;-79
2021/01/06 04:10:23;;;;;;;2.10;1.63;;;1.80;99.90;;;2.35;100.00;97717.00;4999374;28;20455;-79
2021/01/06 04:12:51;;;;;;;2.80;2.23;;;1.70;99.90;;;2.32;100.00;97714.72;4999012;28;20450;-79
2021/01/06 04:15:20;;;;;;;1.97;1.80;;;1.70;99.90;;;2.37;100.00;97706.53;5000073;28;20491;-79
2021/01/06 04:17:50;;;;;;;1.63;1.53;;;1.70;99.90;;;2.38;100.00;97708.16;5002887;28;20839;-79
2021/01/06 04:20:34;;;;;;;2.43;2.20;;;1.70;99.90;;;2.36;100.00;97708.28;5002759;28;20451;-79
2021/01/06 04:23:05;;;;;;;2.10;1.73;;;1.80;99.90;;;2.34;100.00;97706.81;5001131;28;20835;-79
2021/01/06 04:25:36;;;;;;;1.97;1.77;;;1.70;99.90;;;2.37;100.00;97709.94;5002515;28;20456;-79
2021/01/06 04:28:08;;;;;;;1.87;1.70;;;1.80;99.90;;;2.36;100.00;97713.44;5002593;28;20447;-79
2021/01/06 04:30:40;;;;;;;2.73;1.80;;;1.70;99.90;;;2.37;100.00;97707.34;5003243;28;20470;-80
2021/01/06 04:33:12;;;;;;;2.87;1.80;;;1.80;99.90;;;2.38;100.00;97703.00;5003029;28;20953;-79
2021/01/06 04:35:39;;;;;;;1.90;1.70;;;1.80;99.90;;;2.39;100.00;97704.63;5002302;28;20528;-79
2021/01/06 04:38:08;;;;;;;2.80;1.90;;;1.80;99.90;;;2.38;100.00;97703.81;5003550;28;20453;-80
2021/01/06 04:40:40;;;;;;;2.47;1.87;;;1.80;99.90;;;2.35;100.00;97703.28;5002550;28;20509;-79
2021/01/06 04:43:22;;;;;;;2.00;1.80;;;1.70;99.90;;;2.36;100.00;97700.56;5001175;28;20467;-80
2021/01/06 04:46:03;;;;;;;2.50;2.30;;;1.80;99.90;;;2.35;100.00;97696.38;5001048;28;20467;-79
2021/01/06 04:48:51;;;;;;;2.30;2.10;;;1.70;99.90;;;2.32;100.00;97699.25;5002061;28;20469;-79
2021/01/06 04:51:54;;;;;;;2.50;1.87;;;1.70;99.90;;;2.37;100.00;97691.88;4997271;28;20529;-78
2021/01/06 04:54:54;;;;;;;2.93;2.00;;;1.80;99.90;;;2.35;100.00;97692.97;4999165;28;20524;-79
2021/01/06 04:57:53;;;;;;;2.40;1.80;;;1.80;99.90;;;2.35;100.00;97690.41;5001588;28;20979;-79
2021/01/06 05:00:37;;;;;;;3.00;2.10;;;1.80;99.90;;;2.36;100.00;97695.41;5001593;28;20455;-79
2021/01/06 05:03:32;;;;;;;3.77;1.80;;;1.80;99.90;;;2.34;100.00;97684.41;5003235;28;20452;-79
2021/01/06 05:06:44;;;;;;;2.50;2.10;;;1.80;99.90;;;2.27;100.00;97688.53;5003563;28;20438;-79
2021/01/06 05:09:20;;;;;;;3.30;2.10;;;1.70;99.90;;;2.31;100.00;97692.44;5002550;28;20465;-80
2021/01/06 05:12:08;;;;;;;2.40;2.10;;;1.70;99.90;;;2.36;100.00;97697.97;5001364;28;20467;-79
2021/01/06 05:14:51;;;;;;;3.43;3.00;;;1.70;99.90;;;2.39;100.00;97702.06;5000260;28;20864;-78
2021/01/06 05:17:20;;;;;;;2.60;2.17;;;1.80;99.90;;;2.39;100.00;97697.72;4999628;28;20555;-79
2021/01/06 05:19:50;;;;;;;2.47;1.87;;;1.80;99.90;;;2.40;100.00;97706.25;5000911;28;20967;-79
2021/01/06 05:22:19;;;;;;;3.53;3.17;;;1.70;99.90;;;2.38;100.00;97703.81;5000779;28;20502;-83
2021/01/06 05:24:52;;;;;;;3.23;2.80;;;1.70;99.90;;;2.38;100.00;97703.81;5000885;28;20494;-79
2021/01/06 05:27:27;;;;;;;3.73;2.77;;;1.80;99.90;;;2.37;100.00;97706.53;5000054;28;20455;-79
2021/01/06 05:29:58;;;;;;;2.93;2.40;;;1.80;99.90;;;2.36;100.00;97704.94;5001894;28;20474;-79
2021/01/06 05:32:34;;;;;;;4.70;1.80;;;1.80;99.90;;;2.37;100.00;97715.09;5003258;28;20483;-78
2021/01/06 05:35:08;;;;;;;3.23;2.40;;;1.80;99.90;;;2.37;100.00;97707.34;5003532;28;20509;-79
2021/01/06 05:37:38;;;;;;;2.50;2.30;;;1.70;99.90;;;2.38;100.00;97715.91;5003464;28;21016;-80
2021/01/06 05:40:10;;;;;;;7.13;2.63;;;1.80;99.90;;;2.34;100.00;97707.63;5002943;28;20458;-79
2021/01/06 05:42:48;;;;;;;3.10;2.17;;;1.80;99.90;;;2.34;100.00;97707.63;5003074;28;20459;-79
2021/01/06 05:45:19;;;;;;;4.20;3.00;;;1.80;99.90;;;2.24;100.00;97706.88;5002773;28;20877;-79
2021/01/06 05:47:58;;;;;;;2.40;2.20;;;1.60;99.90;;;2.26;100.00;97714.47;5003425;28;20455;-79
2021/01/06 05:50:32;;;;;;;2.10;1.90;;;1.70;99.90;;;2.31;100.00;97710.50;5002671;28;20468;-79
2021/01/06 05:53:05;;;;;;;2.50;2.20;;;1.70;99.90;;;2.32;100.00;97714.72;5003790;28;20866;-79
2021/01/06 05:55:37;;;;;;;2.43;2.20;;;1.70;99.90;;;2.30;100.00;97721.78;5002999;28;20525;-80
2021/01/06 05:58:16;;;;;;;4.10;2.40;;;1.70;99.90;;;2.27;100.00;97716.09;5003186;28;20546;-79
2021/01/06 06:00:52;;;;;;;3.40;2.50;;;1.60;99.90;;;2.30;100.00;97719.19;5003088;28;20883;-79
2021/01/06 06:03:54;;;;;;;2.40;2.17;;;1.80;99.90;;;2.29;100.00;97714.97;5003058;28;20452;-79
2021/01/06 06:06:49;;;;;;;2.97;2.20;;;1.60;99.90;;;2.27;100.00;97718.66;5003383;28;20447;-80
2021/01/06 06:09:31;;;;;;;3.73;2.00;;;1.60;99.90;;;2.28;100.00;97718.53;5003890;28;20464;-80
2021/01/06 06:12:47;;;;;;;5.00;3.70;;;1.60;99.90;;;2.27;100.00;97724.66;5003294;28;20444;-79
2021/01/06 06:15:41;;;;;;;2.83;2.20;;;1.60;99.90;;;2.30;100.00;97721.78;5003166;28;20874;-80
2021/01/06 06:18:43;;;;;;;2.50;2.20;;;1.70;99.90;;;2.33;100.00;97720.66;5003121;28;20471;-79
2021/01/06 06:21:38;;;;;;;3.50;2.50;;;1.70;99.90;;;2.26;100.00;97719.63;5002451;28;20864;-80
2021/01/06 06:24:40;;;;;;;3.73;2.40;;;1.50;99.90;;;2.30;100.00;97720.97;5002884;28;20509;-79
2021/01/06 06:27:47;;;;;;;2.77;2.37;;;1.70;99.90;;;2.28;100.00;97717.72;5003301;28;20452;-79
2021/01/06 06:30:39;;;;;;;3.70;1.97;;;1.60;99.90;;;2.30;100.00;97714.03;5002307;28;20446;-79
2021/01/06 06:33:21;;;;;;;3.70;2.33;;;1.70;99.90;;;2.26;100.00;97717.84;5002534;28;20448;-79
2021/01/06 06:35:50;;;;;;;2.57;2.17;;;1.60;99.90;;;2.31;100.00;97717.44;5001956;28;20491;-79
2021/01/06 06:38:34;;;;;;;2.27;2.00;;;1.70;99.90;;;2.27;100.00;97719.47;5001029;28;20527;-79
2021/01/06 06:41:05;;;;;;;2.60;2.20;;;1.70;99.90;;;2.28;100.00;97726.28;5001705;28;20444;-79
2021/01/06 06:43:45;;;;;;;2.30;2.10;;;1.60;99.90;;;2.31;100.00;97725.97;5002038;28;20465;-79
2021/01/06 06:46:27;;;;;;;2.93;2.30;;;1.70;99.90;;;2.26;100.00;97729.94;5001431;28;20460;-79
2021/01/06 06:49:21;;;;;;;4.67;2.60;;;1.70;99.90;;;2.28;100.00;97733.19;5001851;28;20459;-79
2021/01/06 06:52:00;;;;;;;3.87;2.57;;;1.60;99.90;;;2.29;100.00;97733.03;5001920;28;20549;-79
2021/01/06 06:54:47;;;;;;;3.27;2.00;;;1.60;99.90;;;2.28;100.00;97738.34;5001705;28;20453;-79
2021/01/06 06:57:28;;;;;;;3.40;2.50;;;1.60;99.90;;;2.31;100.00;97741.47;5001742;28;20452;-79
2021/01/06 07:00:13;;;;;;;3.90;3.10;;;1.70;99.90;;;2.31;100.00;97738.06;5002075;28;20458;-79
2021/01/06 07:02:48;;;;;;;6.17;3.03;;;1.60;99.90;;;2.34;100.00;97743.75;5001723;28;20959;-79
2021/01/06 07:05:29;;;;;;;3.23;2.43;;;1.70;99.90;;;2.34;100.00;97746.34;5001671;28;20818;-79
2021/01/06 07:08:04;;;;;;;3.20;2.70;;;1.70;99.90;;;2.35;100.00;97747.16;5002223;28;20802;-79
2021/01/06 07:10:42;;;;;;;6.73;3.33;;;1.80;99.90;;;2.40;100.00;97747.50;5001731;28;20456;-79
2021/01/06 07:13:19;;;;;;;3.80;3.10;;;1.80;99.90;;;2.39;100.00;97759.63;5001706;28;20456;-79
2021/01/06 07:15:53;;;;;;;3.73;2.80;;;1.80;99.90;;;2.37;100.00;97751.19;5000967;28;21011;-79
2021/01/06 07:18:45;;;;;;;5.27;3.50;;;1.70;99.90;;;2.34;100.00;97748.91;5001457;28;20474;-79
2021/01/06 07:21:28;;;;;;;4.40;3.10;;;1.70;99.90;;;2.35;100.00;97750.53;4996855;28;20994;-79
2021/01/06 07:24:16;;;;;;;3.93;3.07;;;1.70;99.90;;;2.35;100.00;97760.03;5001550;28;20455;-79
2021/01/06 07:26:51;;;;;;;3.57;3.10;;;1.70;99.90;;;2.36;100.00;97754.72;5001474;28;20447;-79
2021/01/06 07:29:23;;;;;;;6.10;4.07;;;1.70;99.90;;;2.34;100.00;97759.22;5000904;28;20455;-79
2021/01/06 07:31:57;;;;;;;5.90;3.40;;;1.70;99.90;;;2.26;100.00;97759.13;5000535;28;20467;-79
2021/01/06 07:34:41;;;;;;;5.13;3.50;;;1.60;99.90;;;2.30;100.00;97763.03;5001245;28;20884;-79
2021/01/06 07:37:30;;;;;;;7.13;3.40;;;1.70;99.90;;;2.33;100.00;97762.75;5000899;28;20455;-79
2021/01/06 07:40:03;;;;;;;4.30;3.63;;;1.80;99.90;;;2.34;100.00;97766.97;5001461;28;20462;-79
2021/01/06 07:42:44;;;;;;;5.27;3.47;;;1.80;99.90;;;2.32;100.00;97770.66;5000721;28;20535;-79
2021/01/06 07:45:37;;;;;;;4.63;3.57;;;1.70;99.90;;;2.32;100.00;97771.47;5001161;28;20470;-79
2021/01/06 07:48:53;;;;;;;9.83;4.63;;;1.80;99.90;;;2.34;100.00;97772.13;5001707;28;20462;-79
2021/01/06 07:51:32;;;;;;;8.07;4.87;;;1.70;99.90;;;2.35;100.00;97785.84;4983379;28;20545;-79
2021/01/06 07:54:15;;;;;;;7.87;4.53;;;1.70;99.90;;;2.36;100.00;97777.94;5000738;28;20451;-79
2021/01/06 07:56:53;;;;;;;6.30;4.07;;;1.70;99.90;;;2.38;100.00;97786.38;5000873;28;20501;-79
2021/01/06 07:59:34;;;;;;;6.27;3.90;;;1.70;99.90;;;2.38;100.00;97781.22;5000563;28;21012;-79
2021/01/06 08:02:10;;;;;;;6.17;4.20;;;1.70;99.90;;;2.34;100.00;97790.19;5000625;28;20451;-79
2021/01/06 08:04:45;;;;;;;7.60;4.53;;;1.70;99.90;;;2.40;100.00;97796.53;5000891;28;20456;-80
2021/01/06 08:07:19;;;;;;;6.03;3.87;;;1.80;99.90;;;2.41;100.00;97790.44;5000384;28;20462;-80
2021/01/06 08:09:47;;;;;;;6.30;3.00;;;1.80;99.90;;;2.43;100.00;97793.69;5001165;28;20799;-79
2021/01/06 08:12:25;;;;;;;3.70;3.20;;;1.80;99.90;;;2.44;100.00;97793.53;5000978;28;20825;-80
2021/01/06 08:15:19;;;;;;;8.07;3.97;;;1.90;99.90;;;2.44;100.00;97793.53;5000611;28;20524;-79
2021/01/06 08:17:56;;;;;;;3.80;3.10;;;1.80;99.90;;;2.42;100.00;97792.88;5000387;28;21011;-80
2021/01/06 08:20:30;;;;;;;4.80;3.80;;;1.80;99.90;;;2.38;100.00;97798.44;5000727;28;20921;-79
2021/01/06 08:23:24;;;;;;;5.43;3.40;;;1.70;99.90;;;2.38;100.00;97804.44;5000811;28;20450;-79
2021/01/06 08:26:00;;;;;;;6.37;3.20;;;1.70;99.90;;;2.39;100.00;97797.50;5000725;28;20453;-79
2021/01/06 08:28:31;;;;;;;6.30;4.07;;;1.80;99.90;;;2.45;100.00;97797.75;5001138;28;20542;-79
2021/01/06 08:31:11;;;;;;;5.53;3.50;;;1.90;99.90;;;2.49;100.00;97804.25;5000627;28;20450;-79
2021/01/06 08:33:49;;;;;;;9.10;4.17;;;1.90;99.90;;;2.47;100.00;97810.50;5000475;28;20501;-79
2021/01/06 08:36:25;;;;;;;8.10;4.40;;;1.90;99.90;;;2.51;100.00;97802.34;5000643;28;20600;-79
2021/01/06 08:39:17;;;;;;;6.20;3.87;;;1.90;99.90;;;2.54;100.00;97802.03;5000924;28;20455;-80
2021/01/06 08:41:48;;;;;;;7.00;4.37;;;2.00;99.90;;;2.56;100.00;97801.91;5000418;28;20469;-79
2021/01/06 08:44:38;;;;;;;5.50;3.80;;;2.00;99.90;;;2.54;100.00;97799.47;5000436;28;20459;-79
2021/01/06 08:47:11;;;;;;;3.70;3.20;;;2.00;99.90;;;2.52;100.00;97803.97;5000697;28;20518;-79
2021/01/06 08:49:42;;;;;;;6.70;3.90;;;2.00;99.90;;;2.50;100.00;97811.03;5000142;28;20496;-79
2021/01/06 08:52:27;;;;;;;5.77;3.93;;;1.90;99.90;;;2.49;100.00;97806.84;5000093;28;20471;-79
2021/01/06 08:55:02;;;;;;;5.50;3.70;;;1.80;99.90;;;2.54;100.00;97809.78;5000552;28;20908;-79
2021/01/06 08:57:34;;;;;;;7.40;3.90;;;1.90;99.90;;;2.50;100.00;97805.84;5000136;28;20451;-79
2021/01/06 09:00:25;;;;;;;4.90;3.73;;;1.90;99.90;;;2.47;100.00;97811.31;5000592;28;20456;-79
2021/01/06 09:02:57;;;;;;;6.43;3.70;;;1.80;99.90;;;2.53;100.00;97815.88;5003713;28;20466;-79
2021/01/06 09:05:56;;;;;;;5.60;3.50;;;2.00;99.90;;;2.57;100.00;97810.47;5003312;28;20466;-79
2021/01/06 09:08:29;;;;;;;6.00;4.00;;;1.90;99.90;;;2.59;100.00;97813.72;4989517;28;20456;-79
2021/01/06 09:11:14;;;;;;;7.40;4.40;;;1.90;99.90;;;2.63;100.00;97818.44;5004726;28;20459;-79
2021/01/06 09:13:48;;;;;;;4.90;3.70;;;2.10;99.90;;;2.59;100.00;97816.28;5003952;28;20469;-79
2021/01/06 09:16:29;;;;;;;6.90;3.80;;;2.00;99.90;;;2.64;100.00;97812.31;5004037;28;20494;-79
2021/01/06 09:19:12;;;;;;;5.97;3.90;;;2.10;99.90;;;2.64;100.00;97816.69;5003452;28;20459;-79
2021/01/06 09:21:41;;;;;;;6.20;4.17;;;2.10;99.90;;;2.69;100.00;97814.47;5003333;28;20463;-79
2021/01/06 09:24:16;;;;;;;4.17;3.60;;;2.20;99.90;;;2.71;100.00;97828.06;5003812;28;20814;-79
2021/01/06 09:26:51;;;;;;;5.00;3.87;;;2.10;99.90;;;2.76;100.00;97815.53;5003109;28;20447;-79
2021/01/06 09:29:24;;;;;;;6.70;3.87;;;2.20;99.90;;;2.75;100.00;97826.81;5003294;28;21125;-80
2021/01/06 09:31:56;;;;;;;6.47;3.97;;;2.20;99.90;;;2.76;100.00;97823.28;5003521;28;20453;-79
2021/01/06 09:34:32;;;;;;;7.50;4.33;;;2.20;99.90;;;2.70;100.00;97819.50;5002920;28;20480;-79
2021/01/06 09:37:01;;;;;;;5.13;3.63;;;2.00;99.90;;;2.71;100.00;97817.75;5003221;28;20577;-79
2021/01/06 09:39:35;;;;;;;4.97;4.00;;;2.10;99.90;;;2.72;100.00;97809.03;5002860;28;20542;-79
2021/01/06 09:42:05;;;;;;;4.23;3.20;;;2.10;99.90;;;2.72;100.00;97819.34;5003349;28;20459;-79
2021/01/06 09:44:34;;;;;;;5.77;4.03;;;2.10;99.90;;;2.73;100.00;97818.41;5003702;28;20510;-79
2021/01/06 09:47:11;;;;;;;3.10;2.80;;;2.00;99.90;;;2.74;100.00;97814.88;5004049;28;20900;-79
2021/01/06 09:49:47;;;;;;;5.43;3.07;;;2.10;99.90;;;2.75;100.00;97819.06;5003452;28;20979;-79
2021/01/06 09:52:23;;;;;;;4.20;3.27;;;2.10;99.90;;;2.73;100.00;97821.78;5003435;28;20535;-79
2021/01/06 09:54:56;;;;;;;5.23;3.30;;;2.10;99.90;;;2.70;100.00;97816.94;5003651;28;20455;-79
2021/01/06 09:57:26;;;;;;;5.80;3.87;;;2.00;99.90;;;2.76;100.00;97818.09;5003604;28;20508;-79
2021/01/06 09:59:58;;;;;;;9.17;4.33;;;2.10;99.90;;;2.74;100.00;97820.81;5003884;28;20444;-79
2021/01/06 10:02:29;;;;;;;6.63;4.27;;;2.10;99.90;;;2.79;100.00;97823.78;5003314;28;20462;-79
2021/01/06 10:05:35;;;;;;;4.60;4.00;;;2.10;99.90;;;2.80;100.00;97828.00;5002947;28;20466;-79
2021/01/06 10:08:24;;;;;;;4.77;3.50;;;2.20;99.90;;;2.81;100.00;97823.66;5003171;28;20876;-79
2021/01/06 10:11:01;;;;;;;5.37;3.80;;;2.20;99.90;;;2.84;100.00;97821.63;5003554;28;20451;-79
2021/01/06 10:13:40;;;;;;;4.50;3.17;;;2.20;99.90;;;2.84;100.00;97818.22;5002530;28;20470;-79
2021/01/06 10:16:14;;;;;;;4.93;3.00;;;2.20;99.90;;;2.87;100.00;97815.34;5003677;28;20602;-79
2021/01/06 10:18:58;;;;;;;5.27;3.50;;;2.30;99.90;;;2.89;100.00;97816.00;5004073;28;20473;-79
2021/01/06 10:21:53;;;;;;;5.00;3.40;;;2.30;99.90;;;2.87;100.00;97813.56;5002821;28;20470;-79
2021/01/06 10:24:43;;;;;;;6.13;3.17;;;2.30;99.90;;;2.93;100.00;97819.91;5002514;28;20455;-79
2021/01/06 10:27:27;;;;;;;4.53;3.60;;;2.40;99.90;;;2.90;100.00;97817.63;5002810;28;20962;-79
2021/01/06 10:29:57;;;;;;;4.53;3.30;;;2.40;99.90;;;2.87;100.00;97813.56;5002798;28;21223;-79
2021/01/06 10:32:46;;;;;;;5.00;3.20;;;2.30;99.90;;;2.83;100.00;97817.41;5002318;28;20458;-79
2021/01/06 10:35:42;;;;;;;3.83;2.77;;;2.20;99.90;;;2.92;100.00;97810.53;5002290;28;20486;-79
2021/01/06 10:38:28;;;;;;;4.30;2.90;;;2.30;99.90;;;2.97;100.00;97808.34;5002430;28;20451;-79
2021/01/06 10:41:12;;;;;;;4.63;3.23;;;2.40;99.90;;;2.93;100.00;97812.16;5002346;28;20459;-79
2021/01/06 10:43:47;;;;;;;7.00;3.87;;;2.30;99.90;;;2.93;100.00;97814.75;5001689;28;20909;-79
2021/01/06 10:46:47;;;;;;;4.70;3.50;;;2.30;99.90;;;2.97;100.00;97808.34;5002505;28;20467;-79
2021/01/06 10:49:50;;;;;;;4.37;3.27;;;2.40;99.90;;;3.02;100.00;97812.09;5002303;28;20455;-79
2021/01/06 10:52:34;;;;;;;4.50;3.53;;;2.40;99.90;;;3.04;100.00;97806.81;4997027;28;20790;-79
2021/01/06 10:55:45;;;;;;;4.30;3.47;;;2.40;99.90;;;3.04;100.00;97806.81;5002449;28;20518;-79
2021/01/06 10:58:35;;;;;;;5.90;4.00;;;2.40;99.90;;;3.12;100.00;97812.06;4995621;28;20534;-79
2021/01/06 11:01:46;;;;;;;5.37;3.70;;;2.50;99.90;;;3.09;100.00;97807.16;5002677;28;20480;-79
2021/01/06 11:04:51;;;;;;;4.50;3.60;;;2.50;99.90;;;3.10;100.00;97803.63;4993871;28;20454;-79
2021/01/06 11:07:30;;;;;;;4.90;4.30;;;2.40;99.90;;;3.08;100.00;97802.16;5001623;28;20458;-79